Time;durP1;ratioP1;P1;durP2;ratioP2;P2;SDS_P1;SDS_P2;PMS_P1;PMS_P2;Temp;Humidity;BMP_temperature;BMP_pressure;BME280_temperature;BME280_humidity;BME280_pressure;Samples;Min_cycle;Max_cycle;Signal;HPM_P1;HPM_P2
2023/06/27 00:00:43;;;;;;;;;;;;;;;14.13;100.00;97149.86;110086;1244;59007;-66
2023/06/27 00:03:33;;;;;;;10.00;6.60;;;;;;;14.07;100.00;97150.39;110013;1244;69453;-66
2023/06/27 00:06:05;;;;;;;9.00;7.50;;;;;;;14.04;100.00;97148.55;110012;1243;69171;-67
2023/06/27 00:08:35;;;;;;;9.00;7.60;;;;;;;14.00;100.00;97149.42;110020;1244;69273;-66
2023/06/27 00:11:06;;;;;;;8.30;6.60;;;;;;;13.97;100.00;97151.59;109885;1244;58964;-67
2023/06/27 00:13:40;;;;;;;9.10;7.00;;;;;;;13.96;100.00;97153.97;109972;1244;58927;-65
2023/06/27 00:16:15;;;;;;;9.40;7.00;;;;;;;13.95;100.00;97150.45;110012;1244;69954;-65
2023/06/27 00:18:48;;;;;;;8.30;6.90;;;;;;;13.92;100.00;97150.33;110117;1244;68549;-66
2023/06/27 00:21:21;;;;;;;9.50;6.70;;;;;;;13.91;100.00;97146.23;110011;1244;69129;-67
2023/06/27 00:23:51;;;;;;;7.80;6.10;;;;;;;13.88;100.00;97145.28;110014;1244;59004;-66
2023/06/27 00:26:22;;;;;;;10.10;6.80;;;;;;;13.86;100.00;97145.61;109766;1244;58863;-66
2023/06/27 00:28:56;;;;;;;8.10;7.10;;;;;;;13.86;100.00;97140.77;109960;1244;70498;-64
2023/06/27 00:31:26;;;;;;;10.40;7.00;;;;;;;13.83;100.00;97141.52;110009;1244;69217;-66
2023/06/27 00:33:57;;;;;;;8.10;6.50;;;;;;;13.82;100.00;97146.91;110016;1244;69581;-67
2023/06/27 00:36:28;;;;;;;8.50;6.60;;;;;;;13.80;100.00;97148.79;110031;1244;58951;-66
2023/06/27 00:38:58;;;;;;;10.00;7.40;;;;;;;13.79;100.00;97150.63;109751;1245;58954;-65
2023/06/27 00:41:30;;;;;;;9.40;7.10;;;;;;;13.79;100.00;97149.46;110000;1244;70717;-64
2023/06/27 00:44:02;;;;;;;8.10;6.50;;;;;;;13.75;100.00;97149.86;110059;1245;69268;-67
2023/06/27 00:46:39;;;;;;;7.80;6.60;;;;;;;13.73;100.00;97148.52;110071;1244;69360;-67
2023/06/27 00:49:11;;;;;;;8.80;6.80;;;;;;;13.70;100.00;97153.02;109861;1244;58876;-66
2023/06/27 00:51:42;;;;;;;7.20;5.50;;;;;;;13.65;100.00;97150.64;110064;1244;58870;-66
2023/06/27 00:54:13;;;;;;;7.60;5.90;;;;;;;13.61;100.00;97152.92;109955;1244;70513;-66
2023/06/27 00:56:45;;;;;;;8.20;6.90;;;;;;;13.57;100.00;97151.59;109828;1245;69186;-66
2023/06/27 00:59:16;;;;;;;7.50;6.60;;;;;;;13.51;100.00;97153.33;109941;1246;69665;-66
2023/06/27 01:01:48;;;;;;;8.60;7.10;;;;;;;13.44;100.00;97152.65;109921;1246;58906;-67
2023/06/27 01:04:19;;;;;;;9.60;7.70;;;;;;;13.39;100.00;97153.31;110036;1244;58937;-67
2023/06/27 01:07:15;;;;;;;8.90;7.30;;;;;;;13.35;100.00;97154.23;110072;1243;70728;-67
2023/06/27 01:09:55;;;;;;;9.40;6.60;;;;;;;13.31;100.00;97157.41;110004;1244;69513;-67
2023/06/27 01:12:53;;;;;;;8.50;6.80;;;;;;;13.26;100.00;97156.02;110110;1244;69262;-67
2023/06/27 01:15:25;;;;;;;8.60;7.10;;;;;;;13.23;100.00;97155.57;110141;1244;59262;-67
2023/06/27 01:17:57;;;;;;;7.70;6.20;;;;;;;13.20;100.00;97151.07;109991;1246;58896;-66
2023/06/27 01:20:32;;;;;;;7.40;6.00;;;;;;;13.17;100.00;97148.17;110115;1244;70605;-68
2023/06/27 01:23:14;;;;;;;8.20;6.50;;;;;;;13.15;100.00;97145.62;109674;1243;598686;-67
2023/06/27 01:25:45;;;;;;;6.70;5.70;;;;;;;13.12;100.00;97145.49;110095;1245;69323;-67
2023/06/27 01:28:16;;;;;;;9.10;7.90;;;;;;;13.09;100.00;97146.29;110000;1245;58954;-68
2023/06/27 01:30:48;;;;;;;9.50;7.50;;;;;;;13.06;100.00;97145.73;110124;1244;58918;-67
2023/06/27 01:33:27;;;;;;;9.90;7.20;;;;;;;13.02;100.00;97143.09;110010;1244;69701;-67
2023/06/27 01:36:24;;;;;;;9.60;7.20;;;;;;;12.97;100.00;97140.80;109939;1244;69308;-67
2023/06/27 01:39:04;;;;;;;10.20;7.10;;;;;;;12.95;100.00;97139.98;109867;1245;68538;-68
2023/06/27 01:41:38;;;;;;;10.00;6.80;;;;;;;12.93;100.00;97139.95;110117;1244;58913;-68
2023/06/27 01:44:14;;;;;;;8.90;7.40;;;;;;;12.91;100.00;97136.53;109892;1245;58927;-67
2023/06/27 01:46:48;;;;;;;11.50;8.00;;;;;;;12.91;100.00;97135.66;109999;1244;69838;-66
2023/06/27 01:49:18;;;;;;;9.70;7.50;;;;;;;12.91;100.00;97137.55;109997;1244;69374;-66
2023/06/27 01:51:49;;;;;;;8.80;7.30;;;;;;;12.89;100.00;97135.61;109807;1246;68576;-65
2023/06/27 01:54:20;;;;;;;11.20;7.30;;;;;;;12.88;100.00;97140.09;110013;1244;58852;-67
2023/06/27 01:56:52;;;;;;;10.30;6.90;;;;;;;12.86;100.00;97137.27;110062;1244;58862;-66
2023/06/27 01:59:24;;;;;;;8.80;6.80;;;;;;;12.84;100.00;97139.19;110035;1243;70707;-65
2023/06/27 02:01:55;;;;;;;9.60;7.70;;;;;;;12.82;100.00;97138.30;109825;1248;69302;-66
2023/06/27 02:04:25;;;;;;;9.60;7.70;;;;;;;12.83;100.00;97140.20;109875;1244;69411;-67
2023/06/27 02:06:56;;;;;;;9.10;6.50;;;;;;;12.82;100.00;97138.63;109833;1248;58979;-67
2023/06/27 02:09:27;;;;;;;9.60;7.00;;;;;;;12.81;100.00;97139.63;110118;1244;58867;-68
2023/06/27 02:12:03;;;;;;;8.00;6.30;;;;;;;12.80;100.00;97141.16;110081;1243;69700;-66
2023/06/27 02:14:34;;;;;;;9.20;7.80;;;;;;;12.77;100.00;97138.24;110040;1244;69077;-65
2023/06/27 02:17:05;;;;;;;7.30;6.50;;;;;;;12.72;100.00;97142.95;109855;1246;69262;-64
2023/06/27 02:19:36;;;;;;;8.40;6.00;;;;;;;12.70;100.00;97143.17;110098;1244;58960;-67
2023/06/27 02:22:08;;;;;;;11.00;7.00;;;;;;;12.66;100.00;97147.20;110096;1244;58879;-66
2023/06/27 02:24:42;;;;;;;8.20;6.30;;;;;;;12.63;100.00;97153.02;110100;1244;69960;-67
2023/06/27 02:27:16;;;;;;;7.30;6.30;;;;;;;12.61;100.00;97153.95;109914;1244;68234;-66
2023/06/27 02:29:49;;;;;;;7.40;5.80;;;;;;;12.58;100.00;97155.09;110069;1245;68763;-67
2023/06/27 02:32:21;;;;;;;6.70;5.60;;;;;;;12.54;100.00;97152.11;110110;1243;58901;-66
2023/06/27 02:34:51;;;;;;;7.80;7.00;;;;;;;12.50;100.00;97151.73;110054;1244;58862;-67
2023/06/27 02:37:22;;;;;;;8.00;6.30;;;;;;;12.46;100.00;97149.77;110129;1244;71521;-68
2023/06/27 02:39:54;;;;;;;7.30;6.30;;;;;;;12.44;100.00;97148.02;110037;1245;69129;-66
2023/06/27 02:42:28;;;;;;;9.20;6.40;;;;;;;12.42;100.00;97148.73;109996;1245;69129;-66
2023/06/27 02:45:01;;;;;;;8.20;6.40;;;;;;;12.40;100.00;97147.61;109987;1244;58879;-67
2023/06/27 02:47:32;;;;;;;7.20;5.50;;;;;;;12.41;100.00;97147.61;109916;1243;58889;-67
2023/06/27 02:50:02;;;;;;;;;;;;;;;12.41;100.00;97145.69;110104;1243;70584;-66
2023/06/27 02:52:33;;;;;;;6.40;5.30;;;;;;;12.41;100.00;97148.27;109991;1244;69674;-65
2023/06/27 02:55:04;;;;;;;8.70;6.90;;;;;;;12.41;100.00;97143.59;110009;1243;69943;-67
2023/06/27 02:57:35;;;;;;;10.60;6.80;;;;;;;12.41;100.00;97145.34;110030;1244;58913;-65
2023/06/27 03:00:09;;;;;;;9.50;7.30;;;;;;;12.41;100.00;97141.13;109999;1245;58885;-66
2023/06/27 03:02:40;;;;;;;8.80;7.20;;;;;;;12.43;100.00;97143.91;109872;1244;71181;-67
2023/06/27 03:05:12;;;;;;;9.30;7.70;;;;;;;12.46;100.00;97145.77;109777;1247;68588;-66
2023/06/27 03:07:43;;;;;;;9.40;7.50;;;;;;;12.48;100.00;97142.28;109807;1245;69093;-67
2023/06/27 03:10:14;;;;;;;9.00;6.60;;;;;;;12.51;100.00;97141.52;109853;1246;58898;-66
2023/06/27 03:12:44;;;;;;;;;;;;;;;12.53;100.00;97145.34;109773;1248;58834;-68
2023/06/27 03:15:14;;;;;;;10.00;7.30;;;;;;;12.56;100.00;97146.66;110083;1245;69816;-67
2023/06/27 03:17:45;;;;;;;9.10;6.80;;;;;;;12.59;100.00;97146.75;109917;1243;69912;-67
2023/06/27 03:20:16;;;;;;;8.40;6.40;;;;;;;12.63;100.00;97147.27;110046;1244;69756;-65
2023/06/27 03:22:49;;;;;;;7.50;5.80;;;;;;;12.67;100.00;97148.67;109844;1243;58919;-67
2023/06/27 03:25:20;;;;;;;8.80;6.40;;;;;;;12.71;100.00;97148.33;109861;1244;58882;-67
2023/06/27 03:27:50;;;;;;;9.60;6.60;;;;;;;12.75;100.00;97147.67;109760;1246;70713;-65
2023/06/27 03:30:22;;;;;;;9.10;6.20;;;;;;;12.79;100.00;97148.02;109846;1246;69599;-66
2023/06/27 03:32:53;;;;;;;9.00;6.80;;;;;;;12.82;100.00;97145.48;109959;1246;69212;-66
2023/06/27 03:35:24;;;;;;;8.70;7.00;;;;;;;12.86;100.00;97141.65;109874;1245;58872;-67
2023/06/27 03:37:54;;;;;;;8.90;6.70;;;;;;;12.90;100.00;97139.23;109801;1247;58902;-65
2023/06/27 03:40:24;;;;;;;8.30;6.10;;;;;;;12.95;100.00;97142.10;109737;1244;70781;-66
2023/06/27 03:42:57;;;;;;;10.00;8.10;;;;;;;13.03;100.00;97142.12;110046;1244;69248;-66
2023/06/27 03:45:28;;;;;;;9.50;7.90;;;;;;;13.15;100.00;97146.97;109879;1247;68335;-68
2023/06/27 03:47:58;;;;;;;;;;;;;;;13.28;100.00;97138.39;109836;1244;58966;-67
2023/06/27 03:50:29;;;;;;;8.80;7.50;;;;;;;13.38;100.00;97136.61;109780;1244;58890;-67
2023/06/27 03:53:02;;;;;;;8.40;7.00;;;;;;;13.47;100.00;97138.64;109804;1245;71154;-66
2023/06/27 03:55:33;;;;;;;9.50;7.20;;;;;;;13.55;100.00;97142.41;110117;1244;68422;-66
2023/06/27 03:58:07;;;;;;;8.90;7.40;;;;;;;13.71;100.00;97141.88;110036;1244;68581;-64
2023/06/27 04:00:37;;;;;;;8.10;6.50;;;;;;;13.86;100.00;97145.29;110021;1244;58886;-65
2023/06/27 04:03:08;;;;;;;8.60;7.40;;;;;;;13.99;100.00;97143.20;110069;1244;58838;-65
2023/06/27 04:05:39;;;;;;;8.90;6.60;;;;;;;14.11;100.00;97143.03;110117;1244;70631;-66
2023/06/27 04:08:11;;;;;;;8.10;7.10;;;;;;;14.21;100.00;97146.77;110067;1244;69236;-65
2023/06/27 04:10:42;;;;;;;8.70;6.60;;;;;;;14.33;100.00;97140.84;109935;1246;68592;-64
2023/06/27 04:13:12;;;;;;;7.40;6.20;;;;;;;14.45;100.00;97143.70;109851;1247;58972;-65
2023/06/27 04:15:43;;;;;;;7.60;6.10;;;;;;;14.57;100.00;97148.23;109834;1245;58833;-65
2023/06/27 04:18:14;;;;;;;7.90;5.90;;;;;;;14.69;100.00;97143.92;110112;1244;71193;-67
2023/06/27 04:20:45;;;;;;;6.10;5.50;;;;;;;14.80;100.00;97144.52;110019;1244;69272;-66
2023/06/27 04:23:16;;;;;;;7.40;5.50;;;;;;;14.89;100.00;97142.67;110078;1244;68313;-67
2023/06/27 04:26:05;;;;;;;7.60;6.30;;;;;;;14.96;100.00;97140.00;110058;1243;58847;-65
2023/06/27 04:28:35;;;;;;;7.00;5.70;;;;;;;15.05;100.00;97140.38;109914;1243;58965;-65
2023/06/27 04:31:04;;;;;;;;;;;;;;;15.10;100.00;97140.99;110084;1245;71124;-66
2023/06/27 04:33:39;;;;;;;7.30;6.20;;;;;;;15.18;100.00;97139.61;110033;1244;68481;-64
2023/06/27 04:36:15;;;;;;;7.10;6.40;;;;;;;15.30;100.00;97140.58;110044;1245;69237;-67
2023/06/27 04:38:48;;;;;;;7.70;6.20;;;;;;;15.39;100.00;97143.10;110075;1245;58951;-64
2023/06/27 04:41:18;;;;;;;11.10;6.10;;;;;;;15.52;100.00;97142.39;110106;1245;58900;-65
2023/06/27 04:43:48;;;;;;;6.90;5.80;;;;;;;15.64;100.00;97144.77;110053;1244;71292;-65
2023/06/27 04:46:18;;;;;;;7.90;6.10;;;;;;;15.76;100.00;97145.49;110082;1243;68762;-66
2023/06/27 04:48:48;;;;;;;7.50;6.20;;;;;;;15.85;100.00;97151.12;110101;1245;68368;-66
2023/06/27 04:51:18;;;;;;;7.00;5.90;;;;;;;15.93;100.00;97150.66;110056;1243;58945;-65
2023/06/27 04:53:48;;;;;;;;;;;;;;;16.03;100.00;97149.12;110106;1245;58879;-68
2023/06/27 04:56:21;;;;;;;7.20;5.60;;;;;;;16.14;100.00;97154.94;110058;1243;70668;-66
2023/06/27 04:58:52;;;;;;;6.80;5.90;;;;;;;16.24;100.00;97155.86;110075;1244;69147;-65
2023/06/27 05:01:21;;;;;;;6.10;5.50;;;;;;;16.35;100.00;97156.25;110137;1244;70103;-65
2023/06/27 05:03:52;;;;;;;7.20;6.40;;;;;;;16.45;100.00;97154.80;110068;1244;58948;-64
2023/06/27 05:06:22;;;;;;;8.70;6.90;;;;;;;16.61;100.00;97153.93;110069;1245;58881;-66
2023/06/27 05:08:51;;;;;;;8.00;6.30;;;;;;;16.77;100.00;97160.23;110099;1245;70398;-66
2023/06/27 05:11:21;;;;;;;8.00;6.10;;;;;;;17.02;100.00;97159.95;110125;1244;69269;-64
2023/06/27 05:13:50;;;;;;;6.70;6.10;;;;;;;17.32;100.00;97158.95;109874;1243;68517;-64
2023/06/27 05:16:20;;;;;;;6.60;5.50;;;;;;;17.72;100.00;97158.98;110113;1245;58895;-64
2023/06/27 05:18:50;;;;;;;6.50;5.80;;;;;;;18.11;99.38;97161.11;110171;1243;58875;-67
2023/06/27 05:21:20;;;;;;;7.10;5.80;;;;;;;18.43;98.81;97160.38;110061;1244;71135;-65
2023/06/27 05:23:50;;;;;;;6.30;5.40;;;;;;;18.64;96.74;97162.98;110133;1244;69271;-65
2023/06/27 05:26:20;;;;;;;7.70;5.20;;;;;;;18.90;94.26;97165.66;110098;1244;70155;-66
2023/06/27 05:28:48;;;;;;;6.90;6.20;;;;;;;19.10;94.02;97160.97;110126;1244;58876;-66
2023/06/27 05:31:18;;;;;;;;;;;;;;;19.15;93.35;97157.38;110083;1245;58892;-65
2023/06/27 05:33:47;;;;;;;6.20;5.50;;;;;;;19.09;92.79;97158.02;110077;1245;70633;-65
2023/06/27 05:36:16;;;;;;;7.40;6.60;;;;;;;19.13;94.10;97160.79;110083;1245;68892;-66
2023/06/27 05:38:45;;;;;;;;;;;;;;;19.06;93.36;97157.02;110093;1244;69709;-66
2023/06/27 05:41:18;;;;;;;7.30;6.10;;;;;;;18.84;93.97;97166.15;110079;1245;58887;-67
2023/06/27 05:43:47;;;;;;;8.40;5.90;;;;;;;18.71;94.91;97163.48;110048;1245;58938;-66
2023/06/27 05:46:16;;;;;;;8.00;6.10;;;;;;;18.71;96.47;97164.34;110009;1244;71663;-65
2023/06/27 05:48:45;;;;;;;7.20;6.60;;;;;;;18.75;96.47;97165.34;110037;1244;69232;-65
2023/06/27 05:51:14;;;;;;;7.80;6.40;;;;;;;18.80;96.47;97160.52;110067;1244;69877;-65
2023/06/27 05:53:44;;;;;;;6.70;5.90;;;;;;;18.85;96.43;97159.88;110059;1247;58947;-67
2023/06/27 05:56:14;;;;;;;7.70;6.80;;;;;;;18.98;96.00;97159.45;110074;1245;58879;-67
2023/06/27 05:58:43;;;;;;;7.70;6.60;;;;;;;18.99;95.42;97161.96;110107;1243;70624;-63
2023/06/27 06:01:13;;;;;;;;;;;;;;;18.90;96.74;97161.73;110102;1244;69823;-65
2023/06/27 06:03:43;;;;;;;7.30;6.50;;;;;;;18.99;96.00;97160.93;110069;1245;69321;-66
2023/06/27 06:06:13;;;;;;;6.30;5.50;;;;;;;19.04;96.27;97155.63;110067;1245;58868;-66
2023/06/27 06:08:42;;;;;;;8.40;5.70;;;;;;;19.28;95.95;97156.96;110079;1245;58835;-65
2023/06/27 06:11:11;;;;;;;;;;;;;;;19.51;94.61;97156.68;110115;1245;70687;-65
2023/06/27 06:13:40;;;;;;;8.70;7.30;;;;;;;19.63;92.80;97156.19;110089;1245;68180;-66
2023/06/27 06:16:11;;;;;;;8.20;6.70;;;;;;;19.49;92.78;97158.89;110061;1245;69748;-66
2023/06/27 06:18:40;;;;;;;7.40;5.90;;;;;;;19.51;93.61;97160.60;110100;1244;58890;-66
2023/06/27 06:21:12;;;;;;;7.60;6.00;;;;;;;19.81;93.49;97155.41;110106;1245;58878;-67
2023/06/27 06:23:41;;;;;;;8.30;6.10;;;;;;;20.06;92.13;97154.88;110098;1245;70032;-65
2023/06/27 06:26:10;;;;;;;8.20;6.50;;;;;;;20.33;90.58;97155.45;110145;1245;69822;-66
2023/06/27 06:28:40;;;;;;;8.90;6.20;;;;;;;20.54;87.65;97150.77;110073;1243;68960;-65
2023/06/27 06:31:11;;;;;;;8.40;6.50;;;;;;;20.62;85.41;97152.38;110058;1246;58878;-65
2023/06/27 06:33:40;;;;;;;7.30;5.50;;;;;;;21.20;88.21;97150.29;110117;1245;58905;-65
2023/06/27 06:36:09;;;;;;;7.30;6.30;;;;;;;21.73;84.89;97147.73;110098;1243;71134;-64
2023/06/27 06:38:39;;;;;;;7.30;6.20;;;;;;;22.19;82.04;97147.02;110073;1245;70126;-64
2023/06/27 06:41:08;;;;;;;9.20;6.60;;;;;;;22.18;75.72;97151.27;110042;1251;69275;-64
2023/06/27 06:43:38;;;;;;;7.90;5.90;;;;;;;22.40;73.96;97151.02;110052;1245;58909;-64
2023/06/27 06:46:09;;;;;;;7.20;5.40;;;;;;;22.60;73.08;97149.33;110245;1245;58949;-65
2023/06/27 06:48:39;;;;;;;7.30;6.20;;;;;;;23.00;71.23;97143.52;110124;1245;70008;-63
2023/06/27 06:51:08;;;;;;;7.90;6.10;;;;;;;23.13;69.56;97144.77;110128;1244;69676;-65
2023/06/27 06:53:37;;;;;;;7.30;6.10;;;;;;;23.29;69.29;97146.38;110108;1247;69244;-64
2023/06/27 06:56:06;;;;;;;11.30;5.90;;;;;;;23.42;67.37;97143.81;110068;1245;58861;-66
2023/06/27 06:58:36;;;;;;;7.30;6.00;;;;;;;23.77;67.00;97143.05;110091;1244;58877;-65
2023/06/27 07:01:05;;;;;;;7.60;5.50;;;;;;;23.59;64.64;97143.39;110133;1245;71098;-66
2023/06/27 07:03:34;;;;;;;7.00;6.00;;;;;;;24.02;65.72;97144.88;110213;1244;69296;-64
2023/06/27 07:06:03;;;;;;;6.90;5.70;;;;;;;24.41;64.97;97142.30;110098;1249;69905;-64
2023/06/27 07:08:32;;;;;;;;;;;;;;;24.66;63.61;97141.89;110069;1245;59317;-66
2023/06/27 07:11:02;;;;;;;;;;;;;;;24.82;61.85;97144.91;110134;1245;58848;-64
2023/06/27 07:13:31;;;;;;;6.90;6.20;;;;;;;25.22;62.12;97138.55;110105;1244;71010;-64
2023/06/27 07:16:00;;;;;;;6.40;5.70;;;;;;;25.12;61.91;97137.89;110148;1243;69846;-64
2023/06/27 07:18:29;;;;;;;;;;;;;;;25.25;61.23;97135.90;110128;1245;69855;-64
2023/06/27 07:20:58;;;;;;;7.50;6.50;;;;;;;25.61;60.76;97132.70;109868;1246;59292;-65
2023/06/27 07:23:27;;;;;;;;;;;;;;;25.27;59.78;97135.15;110233;1244;58949;-66
2023/06/27 07:25:57;;;;;;;6.60;5.20;;;;;;;25.34;60.86;97129.00;110130;1243;70585;-64
2023/06/27 07:28:26;;;;;;;;;;;;;;;25.77;59.24;97125.41;110158;1245;69793;-64
2023/06/27 07:30:55;;;;;;;6.60;5.30;;;;;;;25.47;59.41;97127.02;110130;1243;69454;-62
2023/06/27 07:33:25;;;;;;;6.40;5.70;;;;;;;25.56;60.17;97126.11;110134;1244;58855;-64
2023/06/27 07:35:56;;;;;;;6.10;5.10;;;;;;;26.02;59.63;97120.27;110177;1244;59360;-64
2023/06/27 07:38:25;;;;;;;8.30;6.20;;;;;;;26.39;58.14;97117.62;110087;1244;70557;-65
2023/06/27 07:40:54;;;;;;;6.60;5.60;;;;;;;26.33;57.66;97116.09;110096;1243;68469;-66
2023/06/27 07:43:25;;;;;;;8.40;6.40;;;;;;;26.28;58.00;97118.89;110167;1243;68739;-65
2023/06/27 07:45:54;;;;;;;7.50;5.70;;;;;;;26.33;56.99;97115.96;110126;1245;58899;-63
2023/06/27 07:48:24;;;;;;;7.50;6.40;;;;;;;26.38;57.30;97116.34;110080;1244;58885;-65
2023/06/27 07:50:53;;;;;;;8.10;6.50;;;;;;;26.18;57.46;97113.04;110079;1243;70674;-64
2023/06/27 07:53:22;;;;;;;;;;;;;;;25.98;57.56;97114.73;110092;1243;69482;-64
2023/06/27 07:55:51;;;;;;;7.90;6.20;;;;;;;25.97;56.88;97114.17;110079;1244;69259;-65
2023/06/27 07:58:19;;;;;;;5.70;5.20;;;;;;;25.95;57.20;97115.50;110099;1245;58946;-66
2023/06/27 08:00:49;;;;;;;7.10;6.40;;;;;;;26.38;56.85;97115.93;110108;1245;58876;-64
2023/06/27 08:03:18;;;;;;;7.80;7.00;;;;;;;26.36;54.87;97114.77;110119;1243;70969;-65
2023/06/27 08:05:48;;;;;;;8.70;6.10;;;;;;;26.12;54.83;97110.92;110083;1245;68598;-65
2023/06/27 08:08:17;;;;;;;6.90;6.20;;;;;;;26.70;56.07;97109.48;110082;1244;69206;-65
2023/06/27 08:10:47;;;;;;;6.80;6.10;;;;;;;27.30;54.71;97101.48;110111;1244;58872;-66
2023/06/27 08:13:17;;;;;;;7.90;5.90;;;;;;;27.69;51.43;97097.14;110043;1245;58853;-65
2023/06/27 08:15:45;;;;;;;7.60;5.70;;;;;;;27.66;50.10;97102.80;110091;1244;69627;-65
2023/06/27 08:18:14;;;;;;;;;;;;;;;27.87;50.18;97098.69;110151;1245;69898;-65
2023/06/27 08:20:44;;;;;;;8.10;6.30;;;;;;;28.26;49.68;97102.05;110110;1246;70332;-66
2023/06/27 08:23:13;;;;;;;6.50;5.70;;;;;;;28.55;48.31;97095.19;110095;1244;58895;-64
2023/06/27 08:25:43;;;;;;;6.80;5.20;;;;;;;28.44;47.72;97096.49;110139;1245;58868;-65
2023/06/27 08:28:12;;;;;;;6.80;6.00;;;;;;;28.72;48.81;97091.81;110118;1244;69944;-65
2023/06/27 08:30:41;;;;;;;8.10;6.40;;;;;;;29.12;47.73;97095.61;110104;1243;69861;-65
2023/06/27 08:33:10;;;;;;;7.40;6.20;;;;;;;29.31;47.73;97091.58;110087;1244;69280;-67
2023/06/27 08:35:40;;;;;;;8.20;7.40;;;;;;;28.87;46.08;97099.15;110079;1244;58947;-64
2023/06/27 08:38:10;;;;;;;7.50;5.80;;;;;;;28.42;47.16;97095.52;110135;1244;59108;-66
2023/06/27 08:40:42;;;;;;;7.70;5.70;;;;;;;28.46;48.31;97094.63;110104;1244;71153;-64
2023/06/27 08:43:11;;;;;;;6.50;4.50;;;;;;;28.37;45.23;97092.70;110175;1244;69800;-67
2023/06/27 08:45:40;;;;;;;;;;;;;;;28.72;45.95;97088.36;110122;1245;69921;-64
2023/06/27 08:48:09;;;;;;;;;;;;;;;28.95;45.86;97091.30;110195;1241;58935;-66
2023/06/27 08:50:42;;;;;;;7.70;6.40;;;;;;;29.41;45.25;97086.09;110143;1246;58876;-65
2023/06/27 08:53:17;;;;;;;8.90;6.00;;;;;;;28.96;44.10;97092.71;110167;1245;71199;-67
2023/06/27 08:56:06;;;;;;;5.70;5.10;;;;;;;29.09;44.74;97087.74;110047;1245;69311;-67
2023/06/27 08:58:48;;;;;;;7.40;5.50;;;;;;;28.88;44.48;97088.09;110199;1246;69356;-66
2023/06/27 09:01:17;;;;;;;7.40;6.60;;;;;;;29.26;43.63;97082.88;110182;1245;58908;-67
2023/06/27 09:03:46;;;;;;;7.60;6.10;;;;;;;29.41;42.87;97081.55;110151;1244;58872;-65
2023/06/27 09:06:17;;;;;;;9.20;6.90;;;;;;;28.54;44.88;97086.23;110168;1245;71009;-64
2023/06/27 09:08:48;;;;;;;6.80;6.10;;;;;;;28.95;43.26;97092.48;110132;1241;68436;-67
2023/06/27 09:11:18;;;;;;;7.00;6.20;;;;;;;28.61;44.20;97091.83;110151;1245;69377;-65
2023/06/27 09:13:47;;;;;;;6.40;5.80;;;;;;;28.54;43.41;97088.15;110120;1241;58893;-66
2023/06/27 09:16:18;;;;;;;4.70;4.00;;;;;;;28.39;44.52;97091.89;110105;1241;58930;-65
2023/06/27 09:18:48;;;;;;;5.80;4.50;;;;;;;28.75;42.94;97087.89;110112;1244;70675;-65
2023/06/27 09:21:19;;;;;;;4.90;4.30;;;;;;;29.62;43.18;97080.30;110166;1243;70144;-67
2023/06/27 09:23:49;;;;;;;6.80;5.10;;;;;;;30.14;41.07;97079.91;110137;1245;68538;-66
2023/06/27 09:26:18;;;;;;;6.50;5.10;;;;;;;30.21;41.16;97075.29;110146;1241;58934;-65
2023/06/27 09:28:51;;;;;;;5.70;4.70;;;;;;;30.32;40.41;97080.33;110131;1244;58945;-65
2023/06/27 09:31:21;;;;;;;6.30;5.00;;;;;;;29.25;42.73;97083.63;110130;1245;70714;-65
2023/06/27 09:33:51;;;;;;;6.70;5.30;;;;;;;29.40;42.47;97072.51;110139;1245;70854;-64
2023/06/27 09:36:34;;;;;;;5.70;5.10;;;;;;;29.64;42.92;97069.20;110134;1244;69543;-66
2023/06/27 09:39:07;;;;;;;6.90;5.30;;;;;;;28.87;44.16;97074.23;110119;1245;58888;-65
2023/06/27 09:41:47;;;;;;;6.60;5.20;;;;;;;29.16;42.70;97075.88;110149;1244;59275;-66
2023/06/27 09:44:24;;;;;;;6.80;5.40;;;;;;;29.20;41.84;97070.33;110190;1244;70007;-64
2023/06/27 09:46:54;;;;;;;5.20;4.50;;;;;;;28.71;42.92;97072.10;110201;1245;69757;-66
2023/06/27 09:49:30;;;;;;;5.80;4.80;;;;;;;28.57;43.36;97072.44;110200;1243;69249;-64
2023/06/27 09:52:03;;;;;;;;;;;;;;;28.76;42.66;97075.27;110166;1246;58905;-67
2023/06/27 09:54:32;;;;;;;5.80;4.70;;;;;;;28.68;42.98;97076.09;110213;1241;58943;-66
2023/06/27 09:57:12;;;;;;;5.50;4.70;;;;;;;28.73;43.27;97079.02;110179;1245;71536;-66
2023/06/27 09:59:41;;;;;;;5.50;3.70;;;;;;;29.36;42.10;97075.05;110207;1244;69795;-66
2023/06/27 10:02:14;;;;;;;4.80;4.30;;;;;;;29.06;41.52;97078.63;110159;1247;69854;-66
2023/06/27 10:04:43;;;;;;;5.40;4.30;;;;;;;29.89;41.36;97068.30;110152;1245;59243;-66
2023/06/27 10:07:14;;;;;;;4.50;4.10;;;;;;;30.41;41.13;97065.05;110190;1242;58944;-66
2023/06/27 10:09:44;;;;;;;5.30;4.30;;;;;;;30.38;41.09;97064.61;110157;1244;70637;-66
2023/06/27 10:12:14;;;;;;;6.20;5.10;;;;;;;30.12;40.48;97059.55;110174;1245;68788;-67
2023/06/27 10:14:43;;;;;;;6.90;5.10;;;;;;;29.37;40.77;97063.30;110155;1245;70097;-67
2023/06/27 10:17:18;;;;;;;4.70;4.20;;;;;;;29.10;41.68;97067.53;110132;1245;58882;-64
2023/06/27 10:19:49;;;;;;;4.90;4.40;;;;;;;29.18;40.55;97064.08;110156;1244;59285;-65
2023/06/27 10:22:21;;;;;;;5.80;4.30;;;;;;;29.01;41.43;97064.98;110184;1244;71155;-67
2023/06/27 10:24:56;;;;;;;5.30;4.80;;;;;;;29.38;41.60;97059.70;110178;1244;69187;-66
2023/06/27 10:27:25;;;;;;;6.00;4.00;;;;;;;29.59;41.21;97059.41;110122;1244;68743;-64
2023/06/27 10:29:54;;;;;;;4.60;3.90;;;;;;;29.81;39.93;97051.64;110168;1245;58876;-65
2023/06/27 10:32:39;;;;;;;5.90;5.10;;;;;;;29.68;39.20;97049.50;110124;1246;58941;-65
2023/06/27 10:35:24;;;;;;;5.60;4.40;;;;;;;28.84;40.55;97051.69;110182;1245;70981;-64
2023/06/27 10:38:15;;;;;;;6.30;4.80;;;;;;;28.39;42.11;97052.06;110190;1243;69792;-65
2023/06/27 10:40:58;;;;;;;5.80;5.00;;;;;;;28.80;41.72;97051.17;110100;1245;69834;-65
2023/06/27 10:43:47;;;;;;;4.70;4.20;;;;;;;28.91;40.44;97046.79;110100;1244;58853;-67
2023/06/27 10:46:21;;;;;;;4.80;4.30;;;;;;;28.32;38.39;97041.09;110154;1243;58901;-64
2023/06/27 10:48:55;;;;;;;4.70;4.10;;;;;;;28.49;40.92;97036.09;110133;1245;70220;-65
2023/06/27 10:51:36;;;;;;;6.10;4.90;;;;;;;28.50;40.66;97035.02;110151;1244;70497;-64
2023/06/27 10:54:09;;;;;;;7.20;5.00;;;;;;;28.52;40.25;97033.23;110231;1245;69309;-65
2023/06/27 10:56:59;;;;;;;5.90;5.00;;;;;;;28.68;40.16;97028.96;110204;1241;58938;-66
2023/06/27 10:59:33;;;;;;;4.70;4.20;;;;;;;28.68;39.04;97026.52;110183;1245;58882;-65
2023/06/27 11:02:06;;;;;;;5.10;4.60;;;;;;;28.60;39.59;97023.04;110172;1244;70531;-67
2023/06/27 11:04:41;;;;;;;4.70;4.10;;;;;;;28.47;40.37;97016.52;110193;1245;69869;-65
2023/06/27 11:07:22;;;;;;;4.80;4.30;;;;;;;28.49;40.97;97016.95;110127;1245;69896;-66
2023/06/27 11:09:55;;;;;;;4.70;3.80;;;;;;;28.72;39.98;97015.13;110110;1245;58859;-66
2023/06/27 11:12:32;;;;;;;5.30;4.70;;;;;;;29.05;39.65;97013.23;110143;1245;58891;-64
2023/06/27 11:15:04;;;;;;;5.00;4.30;;;;;;;28.77;38.94;97009.31;110148;1241;70326;-65
2023/06/27 11:17:40;;;;;;;5.30;4.20;;;;;;;29.05;38.76;97001.60;110127;1246;68498;-67
2023/06/27 11:20:10;;;;;;;4.90;4.00;;;;;;;29.31;38.35;96999.21;110106;1242;69872;-64
2023/06/27 11:22:38;;;;;;;5.00;3.60;;;;;;;29.29;38.49;96990.08;110133;1241;58875;-67
2023/06/27 11:25:14;;;;;;;5.50;3.50;;;;;;;29.88;39.54;96984.08;110136;1246;59341;-65
2023/06/27 11:27:43;;;;;;;4.50;3.50;;;;;;;30.31;38.88;96983.52;110137;1243;69829;-64
2023/06/27 11:30:15;;;;;;;4.80;4.10;;;;;;;30.56;37.85;96983.27;110118;1245;69238;-66
2023/06/27 11:32:45;;;;;;;6.50;4.20;;;;;;;30.59;37.07;96979.66;110130;1245;69960;-65
2023/06/27 11:35:14;;;;;;;4.30;3.30;;;;;;;30.07;36.80;96972.96;110145;1246;58959;-65
2023/06/27 11:37:43;;;;;;;5.30;4.20;;;;;;;30.11;36.32;96967.80;110180;1243;59265;-65
2023/06/27 11:40:16;;;;;;;4.80;4.00;;;;;;;30.17;36.68;96971.34;110142;1245;69812;-65
2023/06/27 11:42:45;;;;;;;5.80;4.40;;;;;;;30.61;36.84;96970.03;110185;1245;69272;-65
2023/06/27 11:45:14;;;;;;;;;;;;;;;30.51;35.41;96966.88;110108;1252;69877;-64
2023/06/27 11:47:45;;;;;;;5.70;4.00;;;;;;;30.52;36.71;96963.54;110163;1245;58941;-67